Time;durP1;ratioP1;P1;durP2;ratioP2;P2;SDS_P1;SDS_P2;PMS_P1;PMS_P2;Temp;Humidity;BMP_temperature;BMP_pressure;BME280_temperature;BME280_humidity;BME280_pressure;Samples;Min_cycle;Max_cycle;Signal;HPM_P1;HPM_P2
2024/01/29 00:02:13;;;;;;;1.60;0.80;;;;;;;4.83;100.00;102335.53;6254404;28;20430;-74
2024/01/29 00:05:14;;;;;;;5.72;1.33;;;;;;;4.92;100.00;102329.41;6254206;28;20045;-74
2024/01/29 00:08:17;;;;;;;2.55;1.10;;;;;;;4.96;100.00;102332.88;6252975;28;20057;-75
2024/01/29 00:11:19;;;;;;;2.28;1.00;;;;;;;4.93;100.00;102325.94;6254300;28;20049;-74
2024/01/29 00:14:20;;;;;;;2.47;0.80;;;;;;;4.92;100.00;102318.13;6253634;28;20438;-75
2024/01/29 00:17:22;;;;;;;1.23;0.70;;;;;;;4.87;100.00;102325.97;6253817;28;20591;-74
2024/01/29 00:20:23;;;;;;;1.17;0.90;;;;;;;4.83;100.00;102319.91;6253970;28;20053;-74
2024/01/29 00:23:26;;;;;;;2.00;0.98;;;;;;;4.80;100.00;102321.63;6253606;28;20041;-75
2024/01/29 00:26:27;;;;;;;1.95;1.10;;;;;;;4.76;100.00;102328.59;6253327;28;20049;-74
2024/01/29 00:29:28;;;;;;;0.95;0.70;;;;;;;4.74;100.00;102326.88;6253710;28;20052;-74
2024/01/29 00:32:30;;;;;;;3.22;1.13;;;;;;;4.73;100.00;102320.81;6253701;28;20049;-74
2024/01/29 00:35:31;;;;;;;1.27;0.60;;;;;;;4.70;100.00;102320.81;6296412;22;20060;-73
2024/01/29 00:38:34;;;;;;;5.38;0.80;;;;;;;4.64;100.00;102315.63;6278035;28;20373;-73
2024/01/29 00:41:35;;;;;;;5.38;0.90;;;;;;;4.60;100.00;102318.25;6278259;28;20049;-73
2024/01/29 00:44:37;;;;;;;2.83;0.93;;;;;;;4.50;100.00;102309.63;6293674;28;20045;-73
2024/01/29 00:47:38;;;;;;;1.27;0.68;;;;;;;4.43;100.00;102303.53;6302516;28;20049;-73
2024/01/29 00:50:39;;;;;;;2.40;1.00;;;;;;;4.35;100.00;102305.28;6302904;28;20348;-73
2024/01/29 00:53:42;;;;;;;2.35;0.85;;;;;;;4.29;100.00;102303.56;6302581;28;20048;-73
2024/01/29 00:56:43;;;;;;;1.33;0.80;;;;;;;4.25;100.00;102308.78;6302358;28;20349;-73
2024/01/29 00:59:45;;;;;;;0.73;0.60;;;;;;;4.23;100.00;102301.00;6302851;28;20056;-73
2024/01/29 01:02:46;;;;;;;2.13;0.93;;;;;;;4.17;100.00;102298.38;6302224;28;20049;-73
2024/01/29 01:05:47;;;;;;;3.53;0.93;;;;;;;4.11;100.00;102292.34;6302746;28;20056;-73
2024/01/29 01:08:50;;;;;;;1.27;0.70;;;;;;;4.12;100.00;102296.66;6302008;28;20433;-73
2024/01/29 01:11:51;;;;;;;2.95;1.40;;;;;;;4.08;100.00;102293.19;6301910;28;20048;-73
2024/01/29 01:14:53;;;;;;;0.98;0.73;;;;;;;4.12;100.00;102302.75;6302007;28;20349;-73
2024/01/29 01:17:56;;;;;;;1.58;0.90;;;;;;;4.19;100.00;102296.66;6302080;28;20045;-73
2024/01/29 01:20:57;;;;;;;2.65;0.90;;;;;;;4.22;100.00;102296.63;6302229;28;20052;-73
2024/01/29 01:24:01;;;;;;;3.50;0.98;;;;;;;4.20;100.00;102305.34;6301810;28;20353;-73
2024/01/29 01:27:03;;;;;;;1.02;0.70;;;;;;;4.17;100.00;102302.72;6301617;28;20404;-73
2024/01/29 01:30:05;;;;;;;1.70;0.85;;;;;;;4.11;100.00;102297.53;6302236;28;20433;-72
2024/01/29 01:33:07;;;;;;;0.80;0.65;;;;;;;4.00;100.00;102292.38;6301407;28;20074;-73
2024/01/29 01:36:08;;;;;;;1.58;1.02;;;;;;;3.88;100.00;102285.44;6301541;28;20348;-73
2024/01/29 01:39:11;;;;;;;0.63;0.60;;;;;;;3.79;100.00;102282.84;6301828;28;20052;-73
2024/01/29 01:42:12;;;;;;;1.48;0.75;;;;;;;3.74;100.00;102284.59;6301243;28;20129;-73
2024/01/29 01:45:14;;;;;;;1.17;0.73;;;;;;;3.67;100.00;102285.44;6301331;28;20369;-73
2024/01/29 01:48:15;;;;;;;1.00;0.82;;;;;;;3.63;100.00;102278.50;6300967;28;20055;-73
2024/01/29 01:51:17;;;;;;;1.00;0.85;;;;;;;3.60;100.00;102275.91;6301699;28;20052;-73
2024/01/29 01:54:20;;;;;;;2.40;1.02;;;;;;;3.58;100.00;102275.91;6300895;28;20437;-73
2024/01/29 01:57:22;;;;;;;1.60;0.80;;;;;;;3.61;100.00;102267.25;6301140;28;20044;-72
2024/01/29 02:00:24;;;;;;;2.78;0.93;;;;;;;3.57;100.00;102274.19;6301251;28;20045;-73
2024/01/29 02:03:26;;;;;;;2.70;1.02;;;;;;;3.58;100.00;102273.31;6301065;28;20045;-72
2024/01/29 02:06:28;;;;;;;0.75;0.73;;;;;;;3.61;100.00;102275.06;6299588;28;20453;-73
2024/01/29 02:09:33;;;;;;;2.63;1.08;;;;;;;3.64;100.00;102278.53;6296352;28;20040;-72
2024/01/29 02:12:34;;;;;;;0.98;0.55;;;;;;;3.61;100.00;102277.66;6297350;28;20049;-73
2024/01/29 02:15:35;;;;;;;7.53;1.02;;;;;;;3.62;100.00;102287.19;6292052;28;20163;-73
2024/01/29 02:18:37;;;;;;;1.17;0.60;;;;;;;3.58;100.00;102278.50;6300564;28;20055;-72
2024/01/29 02:21:38;;;;;;;1.10;0.82;;;;;;;3.54;100.00;102290.66;6300700;28;20052;-73
2024/01/29 02:24:41;;;;;;;2.38;0.60;;;;;;;3.56;100.00;102280.25;6300583;28;20052;-73
2024/01/29 02:27:42;;;;;;;2.45;1.00;;;;;;;3.56;100.00;102282.84;6300071;28;20433;-73
2024/01/29 02:30:44;;;;;;;1.48;0.88;;;;;;;3.55;100.00;102284.59;6292364;28;20045;-72
2024/01/29 02:33:45;;;;;;;1.25;0.95;;;;;;;3.48;100.00;102284.56;6300083;28;20066;-73
2024/01/29 02:36:46;;;;;;;1.73;1.00;;;;;;;3.38;100.00;102280.25;6293921;28;20060;-73
2024/01/29 02:39:50;;;;;;;1.50;0.90;;;;;;;3.31;100.00;102287.13;6298933;28;20055;-72
2024/01/29 02:42:51;;;;;;;2.97;0.82;;;;;;;3.26;100.00;102291.47;6300226;28;20429;-73
2024/01/29 02:45:53;;;;;;;1.50;0.70;;;;;;;3.22;100.00;102300.13;6300601;28;20460;-73
2024/01/29 02:48:54;;;;;;;3.13;0.93;;;;;;;3.18;100.00;102303.56;6299926;28;20049;-73
2024/01/29 02:51:55;;;;;;;0.52;0.52;;;;;;;3.13;100.00;102294.91;6300316;28;20326;-73
2024/01/29 02:54:58;;;;;;;2.05;1.00;;;;;;;3.05;100.00;102295.75;6299911;28;20041;-72
2024/01/29 02:57:59;;;;;;;1.55;0.88;;;;;;;3.02;100.00;102302.66;6299738;28;20071;-72
2024/01/29 03:01:00;;;;;;;2.80;0.77;;;;;;;2.96;100.00;102300.94;6298923;28;20057;-72
2024/01/29 03:04:02;;;;;;;1.25;0.85;;;;;;;2.91;100.00;102302.66;6297781;28;20091;-73
2024/01/29 03:07:03;;;;;;;0.93;0.73;;;;;;;2.86;100.00;102303.47;6299444;28;20049;-73
2024/01/29 03:10:07;;;;;;;1.00;0.75;;;;;;;2.84;100.00;102302.63;6289902;28;20605;-73
2024/01/29 03:13:08;;;;;;;1.30;0.85;;;;;;;2.78;100.00;102299.13;6291224;28;20048;-73
2024/01/29 03:16:09;;;;;;;0.73;0.52;;;;;;;2.77;100.00;102301.69;6282333;28;20060;-73
2024/01/29 03:19:11;;;;;;;2.42;1.30;;;;;;;2.74;100.00;102301.72;6286332;28;20049;-72
2024/01/29 03:22:12;;;;;;;1.20;0.90;;;;;;;2.66;100.00;102300.81;6287834;28;20361;-72
2024/01/29 03:25:15;;;;;;;2.22;1.15;;;;;;;2.60;100.00;102308.56;6283688;28;20063;-73
2024/01/29 03:28:16;;;;;;;1.60;0.70;;;;;;;2.53;100.00;102302.47;6295345;28;20056;-73
2024/01/29 03:31:18;;;;;;;1.20;0.90;;;;;;;2.48;100.00;102304.19;6299774;28;20053;-73
2024/01/29 03:34:19;;;;;;;2.85;1.10;;;;;;;2.46;100.00;102303.31;6302520;28;20056;-73
2024/01/29 03:37:20;;;;;;;1.40;0.90;;;;;;;2.44;100.00;102300.69;6304187;28;20048;-73
2024/01/29 03:40:23;;;;;;;1.60;0.88;;;;;;;2.43;100.00;102298.97;6304805;28;20052;-73
2024/01/29 03:43:24;;;;;;;2.28;0.90;;;;;;;2.43;100.00;102300.69;6304335;28;20044;-72
2024/01/29 03:46:26;;;;;;;1.23;0.70;;;;;;;2.37;100.00;102296.34;6304003;28;20356;-74
2024/01/29 03:49:27;;;;;;;2.65;1.00;;;;;;;2.34;100.00;102301.50;6300925;28;20049;-71
2024/01/29 03:52:28;;;;;;;2.60;1.05;;;;;;;2.26;100.00;102304.06;6299850;28;20063;-71
2024/01/29 03:55:31;;;;;;;2.60;1.20;;;;;;;2.23;100.00;102304.06;6304009;28;20451;-72
2024/01/29 03:58:32;;;;;;;2.95;1.23;;;;;;;2.19;100.00;102301.44;6303930;28;20051;-72
2024/01/29 04:01:34;;;;;;;1.52;1.00;;;;;;;2.15;100.00;102294.50;6304273;28;20062;-73
2024/01/29 04:04:35;;;;;;;4.68;1.50;;;;;;;2.09;100.00;102295.31;6303719;28;20056;-72
2024/01/29 04:07:36;;;;;;;1.75;0.90;;;;;;;2.05;100.00;102293.56;6303631;28;20048;-72
2024/01/29 04:10:39;;;;;;;1.67;0.93;;;;;;;2.06;100.00;102295.28;6303834;28;20437;-72
2024/01/29 04:13:40;;;;;;;1.95;0.98;;;;;;;2.03;100.00;102292.66;6303648;28;20051;-72
2024/01/29 04:16:45;;;;;;;1.85;0.80;;;;;;;2.01;100.00;102284.91;6303445;28;20055;-71
2024/01/29 04:19:46;;;;;;;3.47;1.45;;;;;;;1.99;100.00;102293.50;6303856;28;20075;-74
2024/01/29 04:22:48;;;;;;;3.90;1.08;;;;;;;1.93;100.00;102285.69;6303294;28;20055;-74
2024/01/29 04:25:50;;;;;;;1.35;0.80;;;;;;;1.91;100.00;102284.81;6303878;28;20045;-73
2024/01/29 04:28:52;;;;;;;3.35;0.93;;;;;;;1.89;100.00;102286.53;6303005;28;20459;-74
2024/01/29 04:31:53;;;;;;;1.08;0.90;;;;;;;1.87;100.00;102302.06;6303663;28;20045;-74
2024/01/29 04:34:54;;;;;;;1.67;0.93;;;;;;;1.85;100.00;102292.53;6303083;28;20064;-74
2024/01/29 04:37:56;;;;;;;1.20;0.95;;;;;;;1.81;100.00;102283.88;6302837;28;20052;-74
2024/01/29 04:40:58;;;;;;;4.68;0.98;;;;;;;1.78;100.00;102286.47;6303502;28;20048;-72
2024/01/29 04:44:00;;;;;;;2.95;1.17;;;;;;;1.75;100.00;102286.41;6302321;28;20040;-74
2024/01/29 04:47:01;;;;;;;2.53;1.20;;;;;;;1.70;100.00;102285.53;6293724;28;20429;-74
2024/01/29 04:50:03;;;;;;;1.20;1.10;;;;;;;1.69;100.00;102286.38;6303069;28;20052;-73
2024/01/29 04:53:04;;;;;;;3.08;1.23;;;;;;;1.66;100.00;102288.94;6302757;28;20348;-73
2024/01/29 04:56:08;;;;;;;3.40;1.02;;;;;;;1.69;100.00;102295.03;6303041;28;20070;-74
2024/01/29 04:59:09;;;;;;;2.03;1.10;;;;;;;1.68;100.00;102288.09;6303140;28;20048;-73
2024/01/29 05:02:10;;;;;;;2.70;1.25;;;;;;;1.65;100.00;102288.06;6301367;28;20056;-74
2024/01/29 05:05:12;;;;;;;4.18;1.13;;;;;;;1.65;100.00;102294.97;6295120;28;20045;-73
2024/01/29 05:08:13;;;;;;;2.50;1.15;;;;;;;1.63;100.00;102294.09;6300746;28;20053;-73
2024/01/29 05:11:16;;;;;;;3.05;1.50;;;;;;;1.58;100.00;102283.69;6295692;28;20052;-71
2024/01/29 05:14:17;;;;;;;2.75;1.50;;;;;;;1.59;100.00;102287.13;6302145;28;20041;-73
2024/01/29 05:17:18;;;;;;;2.13;1.25;;;;;;;1.56;100.00;102280.22;6301869;28;20074;-73
2024/01/29 05:20:20;;;;;;;6.38;1.52;;;;;;;1.57;100.00;102281.09;6302360;28;20463;-73
2024/01/29 05:23:21;;;;;;;2.42;1.40;;;;;;;1.57;100.00;102289.72;6293317;28;20049;-73
2024/01/29 05:26:24;;;;;;;4.75;1.73;;;;;;;1.49;100.00;102286.19;6301624;28;20079;-73
2024/01/29 05:29:25;;;;;;;2.42;1.35;;;;;;;1.45;100.00;102287.91;6302031;28;20048;-73
2024/01/29 05:32:27;;;;;;;3.35;1.50;;;;;;;1.42;100.00;102289.59;6302130;28;20052;-73
2024/01/29 05:35:28;;;;;;;2.75;1.80;;;;;;;1.44;100.00;102293.94;6301364;28;20045;-73
2024/01/29 05:38:31;;;;;;;2.25;1.42;;;;;;;1.40;100.00;102288.69;6301282;28;20352;-73
2024/01/29 05:41:33;;;;;;;4.25;1.73;;;;;;;1.38;100.00;102295.59;6301733;28;20052;-73
2024/01/29 05:44:35;;;;;;;2.47;1.60;;;;;;;1.38;100.00;102293.00;6301139;28;20044;-73
2024/01/29 05:47:37;;;;;;;2.17;1.33;;;;;;;1.37;100.00;102294.75;6301149;28;20075;-73
2024/01/29 05:50:38;;;;;;;2.97;1.50;;;;;;;1.37;100.00;102296.47;6301132;28;20044;-73
2024/01/29 05:53:39;;;;;;;4.25;1.52;;;;;;;1.30;100.00;102297.25;6292612;28;20052;-73
2024/01/29 05:56:43;;;;;;;2.40;1.17;;;;;;;1.29;100.00;102301.56;6300580;28;20053;-73
2024/01/29 05:59:44;;;;;;;5.15;1.83;;;;;;;1.29;100.00;102309.31;6301228;28;20044;-74
2024/01/29 06:02:47;;;;;;;2.53;1.33;;;;;;;1.26;100.00;102307.56;6300497;28;20060;-73
2024/01/29 06:05:49;;;;;;;2.65;1.33;;;;;;;1.26;100.00;102298.94;6301333;28;20048;-73
2024/01/29 06:08:50;;;;;;;3.95;1.70;;;;;;;1.26;100.00;102310.16;6300653;28;20063;-73
2024/01/29 06:11:54;;;;;;;4.20;1.40;;;;;;;1.26;100.00;102314.47;6300943;28;20055;-73
2024/01/29 06:14:55;;;;;;;4.05;1.48;;;;;;;1.24;100.00;102309.28;6300640;28;20045;-73
2024/01/29 06:17:57;;;;;;;7.47;1.60;;;;;;;1.23;100.00;102301.50;6300283;28;20049;-73
2024/01/29 06:20:58;;;;;;;4.25;1.80;;;;;;;1.23;100.00;102309.28;6282614;28;20052;-73
2024/01/29 06:24:00;;;;;;;2.63;1.65;;;;;;;1.19;100.00;102313.56;6275406;28;20068;-73
2024/01/29 06:27:03;;;;;;;8.77;1.50;;;;;;;1.15;100.00;102316.97;6275294;28;20064;-73
2024/01/29 06:30:06;;;;;;;3.20;1.67;;;;;;;1.15;100.00;102311.78;6282474;28;20562;-73
2024/01/29 06:33:07;;;;;;;2.30;1.70;;;;;;;1.11;100.00;102322.94;6290782;28;20052;-73
2024/01/29 06:36:08;;;;;;;5.63;1.85;;;;;;;1.16;100.00;102323.00;6280426;28;20052;-73
2024/01/29 06:39:10;;;;;;;2.38;1.55;;;;;;;1.25;100.00;102323.97;6298934;23;20453;-73
2024/01/29 06:42:13;;;;;;;3.28;1.45;;;;;;;1.28;100.00;102317.97;6275234;28;20052;-71
2024/01/29 06:45:14;;;;;;;4.57;1.90;;;;;;;1.37;100.00;102323.22;6274957;28;20049;-72
2024/01/29 06:48:15;;;;;;;3.15;1.50;;;;;;;1.38;100.00;102324.97;6275264;28;20052;-72
2024/01/29 06:51:17;;;;;;;2.97;2.00;;;;;;;1.41;100.00;102322.41;6275579;28;20074;-69
2024/01/29 06:54:18;;;;;;;2.45;1.65;;;;;;;1.47;100.00;102319.88;6275269;28;20048;-71
2024/01/29 06:57:21;;;;;;;6.50;2.10;;;;;;;1.50;100.00;102316.44;6274356;28;20453;-71
2024/01/29 07:00:22;;;;;;;4.57;1.88;;;;;;;1.58;100.00;102319.09;6272118;28;20045;-70
2024/01/29 07:03:24;;;;;;;2.72;1.50;;;;;;;1.47;100.00;102319.88;6274292;28;20055;-73
2024/01/29 07:06:25;;;;;;;2.33;1.40;;;;;;;1.42;100.00;102325.88;6274950;28;20052;-71
2024/01/29 07:09:26;;;;;;;4.40;2.05;;;;;;;1.44;100.00;102319.81;6274268;28;20069;-71
2024/01/29 07:12:29;;;;;;;3.17;1.85;;;;;;;1.46;100.00;102331.09;6275408;28;20056;-72
2024/01/29 07:15:31;;;;;;;3.28;1.33;;;;;;;1.55;100.00;102330.31;6274995;28;20041;-72
2024/01/29 07:18:32;;;;;;;2.47;1.50;;;;;;;1.46;100.00;102327.63;6274570;28;20049;-73
2024/01/29 07:21:34;;;;;;;5.57;2.67;;;;;;;1.43;100.00;102325.00;6275308;28;20056;-72
2024/01/29 07:24:35;;;;;;;3.70;1.40;;;;;;;1.43;100.00;102331.06;6274852;28;20044;-72
2024/01/29 07:27:38;;;;;;;4.28;2.08;;;;;;;1.46;100.00;102323.31;6274739;28;20049;-71
2024/01/29 07:30:39;;;;;;;7.22;1.67;;;;;;;1.52;100.00;102340.63;6274623;28;20056;-71
2024/01/29 07:33:40;;;;;;;4.38;2.75;;;;;;;1.55;100.00;102340.69;6274936;28;20139;-71
2024/01/29 07:36:42;;;;;;;4.38;1.80;;;;;;;1.56;100.00;102336.34;6274368;28;20049;-73
2024/01/29 07:39:43;;;;;;;3.28;1.83;;;;;;;1.60;100.00;102327.75;6286937;28;20045;-73
2024/01/29 07:42:46;;;;;;;4.00;1.95;;;;;;;1.64;100.00;102321.75;6299461;28;20052;-73
2024/01/29 07:45:47;;;;;;;2.80;1.52;;;;;;;1.67;100.00;102321.75;6299529;28;20056;-73
2024/01/29 07:48:49;;;;;;;3.55;1.75;;;;;;;1.75;100.00;102322.69;6299154;28;20055;-72
2024/01/29 07:51:51;;;;;;;5.75;2.08;;;;;;;1.82;100.00;102321.00;6292427;28;20048;-73
2024/01/29 07:54:52;;;;;;;4.68;1.83;;;;;;;1.87;100.00;102328.00;6293396;28;20424;-73
2024/01/29 07:57:55;;;;;;;4.68;1.80;;;;;;;1.94;100.00;102321.13;6292574;28;20060;-79
2024/01/29 08:00:56;;;;;;;2.55;1.75;;;;;;;1.95;100.00;102328.03;6296641;28;20056;-73
2024/01/29 08:03:59;;;;;;;5.70;1.98;;;;;;;1.98;100.00;102318.56;6295687;28;20049;-77
2024/01/29 08:07:01;;;;;;;6.22;2.60;;;;;;;2.03;100.00;102323.78;6290540;28;20044;-71
2024/01/29 08:10:03;;;;;;;6.28;2.00;;;;;;;2.05;100.00;102323.81;6292561;28;20053;-73
2024/01/29 08:13:06;;;;;;;3.13;1.85;;;;;;;2.09;100.00;102328.13;6288462;28;20053;-71
2024/01/29 08:16:07;;;;;;;5.65;2.13;;;;;;;2.11;100.00;102318.66;6273754;28;20354;-71
2024/01/29 08:19:10;;;;;;;3.55;1.40;;;;;;;2.11;100.00;102329.91;6273780;28;20443;-71
2024/01/29 08:22:11;;;;;;;5.00;2.20;;;;;;;2.14;100.00;102332.53;6278535;28;20045;-71
2024/01/29 08:25:12;;;;;;;20.42;7.65;;;;;;;2.17;100.00;102335.13;6278410;28;20041;-71
2024/01/29 08:28:15;;;;;;;15.73;7.57;;;;;;;2.24;100.00;102330.84;6278221;28;20437;-72
2024/01/29 08:31:17;;;;;;;16.08;7.05;;;;;;;2.31;100.00;102324.84;6278482;28;20053;-72
2024/01/29 08:34:18;;;;;;;9.02;4.18;;;;;;;2.34;100.00;102334.38;6278200;28;20353;-72
2024/01/29 08:37:19;;;;;;;8.30;3.72;;;;;;;2.45;100.00;102333.59;6277909;28;20049;-72
2024/01/29 08:40:21;;;;;;;9.55;3.47;;;;;;;2.56;100.00;102333.63;6278240;28;20357;-73
2024/01/29 08:43:23;;;;;;;11.30;3.20;;;;;;;2.61;100.00;102333.66;6278079;28;20056;-72
2024/01/29 08:46:25;;;;;;;5.75;2.22;;;;;;;2.71;100.00;102338.03;6277946;28;20045;-73
2024/01/29 08:49:26;;;;;;;3.97;2.10;;;;;;;2.78;100.00;102338.06;6278233;28;20458;-72
2024/01/29 08:52:27;;;;;;;5.68;2.22;;;;;;;2.92;100.00;102334.69;6278071;28;20048;-72
2024/01/29 08:55:29;;;;;;;4.78;2.33;;;;;;;3.00;100.00;102345.97;6277829;28;20048;-72
2024/01/29 08:58:32;;;;;;;7.03;2.35;;;;;;;3.08;100.00;102330.38;6277323;28;20056;-72
2024/01/29 09:01:33;;;;;;;6.00;2.67;;;;;;;3.15;100.00;102330.41;6278026;28;20430;-72
2024/01/29 09:04:34;;;;;;;4.90;2.17;;;;;;;3.23;100.00;102325.25;6277737;28;20049;-72
2024/01/29 09:07:36;;;;;;;5.47;2.70;;;;;;;3.29;100.00;102317.47;6277422;28;20068;-72
2024/01/29 09:10:37;;;;;;;4.50;2.22;;;;;;;3.37;100.00;102312.28;6285443;28;20045;-72
2024/01/29 09:13:40;;;;;;;3.10;2.28;;;;;;;3.51;100.00;102326.16;6297247;28;20044;-73
2024/01/29 09:16:41;;;;;;;3.50;2.10;;;;;;;3.67;100.00;102320.09;6295075;28;20438;-73
2024/01/29 09:19:45;;;;;;;4.72;1.83;;;;;;;3.83;100.00;102323.59;6300698;28;20471;-73
2024/01/29 09:22:46;;;;;;;5.18;1.77;;;;;;;3.93;100.00;102330.50;6301428;28;20114;-74
2024/01/29 09:25:47;;;;;;;3.63;1.55;;;;;;;4.21;100.00;102335.69;6299005;28;20071;-73
2024/01/29 09:28:50;;;;;;;5.07;1.83;;;;;;;4.58;100.00;102324.31;6296308;28;20041;-80
2024/01/29 09:31:52;;;;;;;2.97;1.50;;;;;;;4.71;100.00;102332.09;6298565;28;20105;-73
2024/01/29 09:34:53;;;;;;;3.42;1.40;;;;;;;4.84;100.00;102334.63;6301715;28;20048;-73
2024/01/29 09:37:54;;;;;;;2.88;1.40;;;;;;;5.01;100.00;102326.75;6300607;28;20348;-73
2024/01/29 09:40:58;;;;;;;4.72;1.23;;;;;;;5.12;100.00;102336.25;6301089;28;20049;-72
2024/01/29 09:44:05;;;;;;;2.88;1.50;;;;;;;5.23;100.00;102334.47;6301381;28;20476;-73
2024/01/29 09:47:07;;;;;;;5.03;1.50;;;;;;;5.43;100.00;102331.72;6301208;28;20048;-73
2024/01/29 09:50:11;;;;;;;2.38;1.35;;;;;;;5.49;100.00;102344.72;6301417;28;20109;-73
2024/01/29 09:53:16;;;;;;;3.25;1.25;;;;;;;5.52;100.00;102340.34;6301126;28;20361;-73
2024/01/29 09:56:18;;;;;;;3.53;1.08;;;;;;;5.60;100.00;102340.31;6300910;28;20045;-73
2024/01/29 09:59:20;;;;;;;2.30;1.30;;;;;;;5.66;100.00;102355.91;6301436;28;20045;-73
2024/01/29 10:02:23;;;;;;;1.75;1.17;;;;;;;5.73;100.00;102368.03;6301256;28;20441;-73
2024/01/29 10:05:30;;;;;;;2.17;1.13;;;;;;;5.80;100.00;102368.84;6300795;28;20451;-73
2024/01/29 10:08:33;;;;;;;2.17;1.27;;;;;;;5.96;100.00;102375.72;6300576;28;20059;-73
2024/01/29 10:11:36;;;;;;;1.88;1.17;;;;;;;6.13;100.00;102372.09;6300909;28;20051;-70
2024/01/29 10:14:39;;;;;;;2.30;1.13;;;;;;;6.25;100.00;102364.16;6301186;28;20071;-71
2024/01/29 10:17:40;;;;;;;2.20;1.30;;;;;;;6.47;100.00;102373.53;6300310;28;20048;-71
2024/01/29 10:20:42;;;;;;;7.68;2.20;;;;;;;6.54;100.00;102380.41;6300733;28;20053;-71
2024/01/29 10:23:43;;;;;;;9.73;4.88;;;;;;;6.55;100.00;102387.38;6300280;28;20349;-71
2024/01/29 10:26:46;;;;;;;8.18;3.63;;;;;;;6.66;100.00;102389.84;6300713;28;20052;-72
2024/01/29 10:29:49;;;;;;;7.47;2.13;;;;;;;6.62;100.00;102388.16;6300568;28;20048;-72
2024/01/29 10:32:50;;;;;;;7.10;2.15;;;;;;;6.63;100.00;102387.28;6300356;28;20449;-72
2024/01/29 10:35:52;;;;;;;4.03;1.63;;;;;;;6.65;100.00;102380.28;6300344;28;20352;-71
2024/01/29 10:38:54;;;;;;;1.85;1.27;;;;;;;6.72;100.00;102387.19;6300080;28;20044;-72
2024/01/29 10:41:57;;;;;;;2.33;1.38;;;;;;;6.77;100.00;102377.56;6300328;28;20361;-71
2024/01/29 10:45:01;;;;;;;2.88;1.67;;;;;;;6.84;100.00;102394.03;6299770;28;20048;-70
2024/01/29 10:48:08;;;;;;;3.13;1.60;;;;;;;6.98;100.00;102381.66;6299734;28;20400;-71
2024/01/29 10:51:12;;;;;;;3.88;1.40;;;;;;;7.15;100.00;102388.44;6300057;28;20054;-72
2024/01/29 10:54:14;;;;;;;4.47;1.70;;;;;;;7.24;100.00;102377.84;6300092;28;20060;-72
2024/01/29 10:57:16;;;;;;;3.35;1.52;;;;;;;7.47;100.00;102378.41;6299296;28;20052;-72
2024/01/29 11:00:22;;;;;;;4.15;2.00;;;;;;;7.68;100.00;102373.75;6300248;28;20055;-71
2024/01/29 11:03:26;;;;;;;7.50;1.67;;;;;;;7.80;100.00;102374.41;6299782;28;20066;-73
2024/01/29 11:06:34;;;;;;;3.92;1.70;;;;;;;7.84;100.00;102376.09;6299757;28;20045;-73
2024/01/29 11:09:36;;;;;;;2.80;1.57;;;;;;;7.88;100.00;102383.00;6299910;28;20048;-73
2024/01/29 11:12:39;;;;;;;2.97;1.55;;;;;;;8.10;100.00;102387.91;6299877;28;20356;-73
2024/01/29 11:15:42;;;;;;;5.00;1.70;;;;;;;8.25;100.00;102389.38;6299570;28;20044;-73
2024/01/29 11:18:43;;;;;;;4.10;1.58;;;;;;;8.42;100.00;102391.75;6299439;28;20048;-72
2024/01/29 11:21:48;;;;;;;2.20;1.48;;;;;;;8.52;100.00;102388.06;6299790;28;20044;-73
2024/01/29 11:24:50;;;;;;;1.95;1.35;;;;;;;8.59;100.00;102377.47;6299684;28;20472;-71
2024/01/29 11:27:51;;;;;;;2.83;1.38;;;;;;;8.71;100.00;102376.34;6299448;28;20044;-71
2024/01/29 11:30:54;;;;;;;4.15;2.22;;;;;;;8.69;100.00;102366.78;6297335;28;20052;-74
2024/01/29 11:34:04;;;;;;;2.85;1.33;;;;;;;8.77;100.00;102360.50;6294978;28;20305;-73
2024/01/29 11:37:07;;;;;;;3.78;1.58;;;;;;;8.81;100.00;102359.56;6297996;28;20048;-73
2024/01/29 11:40:33;;;;;;;2.92;1.63;;;;;;;8.88;100.00;102365.53;6298939;28;20187;-74
2024/01/29 11:43:36;;;;;;;1.98;1.25;;;;;;;8.97;100.00;102360.09;6299312;28;20048;-74
2024/01/29 11:46:43;;;;;;;2.50;1.30;;;;;;;9.23;100.00;102366.56;6298982;28;20127;-73
2024/01/29 11:49:45;;;;;;;4.60;1.55;;;;;;;9.31;100.00;102375.09;6299633;28;20053;-74
2024/01/29 11:52:46;;;;;;;4.72;1.73;;;;;;;9.32;100.00;102374.22;6298912;28;20044;-74
2024/01/29 11:55:49;;;;;;;2.50;1.40;;;;;;;9.36;100.00;102374.13;6302398;28;20052;-72
2024/01/29 11:59:00;;;;;;;1.63;1.25;;;;;;;9.58;98.26;102373.63;6301005;28;20052;-73
2024/01/29 12:02:03;;;;;;;4.28;1.65;;;;;;;9.58;99.81;102373.63;6301898;28;20128;-73
2024/01/29 12:05:05;;;;;;;5.50;1.70;;;;;;;9.70;95.62;102370.72;6303098;28;20044;-72
2024/01/29 12:08:13;;;;;;;2.95;1.83;;;;;;;9.85;98.72;102372.97;6302236;28;20067;-72
2024/01/29 12:11:15;;;;;;;3.58;2.15;;;;;;;9.91;97.91;102379.84;6298527;28;20122;-74
2024/01/29 12:14:17;;;;;;;2.70;1.55;;;;;;;9.99;95.73;102377.91;6297781;28;20055;-72
2024/01/29 12:17:19;;;;;;;3.17;1.60;;;;;;;9.99;100.00;102374.41;6298278;28;20075;-73
2024/01/29 12:20:21;;;;;;;6.15;1.90;;;;;;;10.11;97.35;102379.34;6303205;28;20048;-73
2024/01/29 12:23:22;;;;;;;4.22;2.03;;;;;;;10.26;97.72;102383.38;6302516;28;20353;-73
2024/01/29 12:26:28;;;;;;;5.22;1.55;;;;;;;10.43;93.66;102380.31;6302912;28;20080;-73
2024/01/29 12:29:32;;;;;;;4.38;1.70;;;;;;;10.35;94.37;102378.75;6303342;28;20048;-74
2024/01/29 12:32:35;;;;;;;3.67;1.52;;;;;;;10.32;99.18;102367.47;6303152;28;20330;-73
2024/01/29 12:35:37;;;;;;;3.40;1.63;;;;;;;10.39;96.38;102363.75;6303017;28;20349;-73
2024/01/29 12:41:42;;;;;;;2.78;1.50;;;;;;;10.41;97.78;102369.88;6235718;28;20046;-74
2024/01/29 12:44:43;;;;;;;2.67;1.48;;;;;;;10.37;97.35;102370.84;6228768;28;20046;-76
2024/01/29 12:47:46;;;;;;;3.72;1.40;;;;;;;10.55;95.00;102370.34;6235737;28;20037;-76
2024/01/29 12:50:47;;;;;;;4.25;1.35;;;;;;;10.66;92.90;102368.28;6257271;28;20045;-75
2024/01/29 12:53:55;;;;;;;5.45;1.65;;;;;;;10.50;97.09;102372.25;6256278;28;20064;-75
2024/01/29 12:56:56;;;;;;;3.75;1.88;;;;;;;10.51;96.48;102373.97;6263751;28;20045;-76
2024/01/29 12:59:58;;;;;;;2.60;1.52;;;;;;;10.64;97.62;102370.09;6266671;28;20081;-75
2024/01/29 13:03:00;;;;;;;5.43;2.10;;;;;;;10.66;95.55;102385.81;6261835;28;20053;-74
2024/01/29 13:06:02;;;;;;;2.85;1.30;;;;;;;10.60;98.59;102384.22;6260651;28;20045;-74
2024/01/29 13:09:04;;;;;;;5.72;2.00;;;;;;;10.56;100.00;102374.69;6261709;28;20069;-75
2024/01/29 13:12:07;;;;;;;2.22;1.50;;;;;;;10.47;100.00;102374.94;6260687;28;20053;-76
2024/01/29 13:15:09;;;;;;;1.70;1.48;;;;;;;10.68;100.00;102373.50;6264816;28;20322;-75
2024/01/29 13:18:12;;;;;;;4.22;1.60;;;;;;;10.80;98.34;102377.56;6266980;28;20045;-75
2024/01/29 13:21:15;;;;;;;5.40;1.75;;;;;;;10.85;96.66;102375.66;6267465;28;20056;-74
2024/01/29 13:24:17;;;;;;;7.43;1.90;;;;;;;10.88;96.24;102381.69;6267502;28;20052;-74
2024/01/29 13:27:20;;;;;;;2.75;1.85;;;;;;;10.97;98.80;102382.34;6276708;28;20434;-76
2024/01/29 13:30:24;;;;;;;3.38;1.83;;;;;;;10.96;99.63;102383.25;6277136;28;20049;-76
2024/01/29 13:33:26;;;;;;;4.75;1.63;;;;;;;10.84;99.63;102381.81;6270044;28;20434;-76
2024/01/29 13:36:28;;;;;;;5.75;2.03;;;;;;;10.80;100.00;102386.28;6249850;28;20044;-77
2024/01/29 13:39:30;;;;;;;5.35;1.90;;;;;;;10.83;100.00;102373.06;6264412;28;20041;-77
2024/01/29 13:42:32;;;;;;;5.00;2.70;;;;;;;10.81;100.00;102380.16;6298488;28;20444;-77
2024/01/29 13:45:33;;;;;;;6.47;2.25;;;;;;;10.83;100.00;102380.97;6300290;28;20048;-77
2024/01/29 13:48:36;;;;;;;2.17;1.70;;;;;;;10.76;100.00;102382.03;6300472;28;20051;-76
2024/01/29 13:51:37;;;;;;;5.18;2.00;;;;;;;10.76;100.00;102378.53;6301428;28;20476;-75
2024/01/29 13:54:40;;;;;;;3.70;2.20;;;;;;;10.73;100.00;102371.63;6301356;28;20052;-76
2024/01/29 13:57:41;;;;;;;4.85;1.92;;;;;;;10.64;100.00;102374.50;6300629;28;20067;-75
2024/01/29 14:00:43;;;;;;;7.35;2.65;;;;;;;10.55;100.00;102372.97;6301143;28;20048;-75
2024/01/29 14:03:46;;;;;;;4.30;1.63;;;;;;;10.55;100.00;102380.88;6300644;28;20352;-75
2024/01/29 14:06:56;;;;;;;4.28;2.00;;;;;;;10.50;100.00;102379.28;6293482;28;20439;-75
2024/01/29 14:09:57;;;;;;;4.55;2.10;;;;;;;10.50;100.00;102382.75;6288163;28;20048;-75